Time,TemperatureF,DewpointF,PressureIn,WindDirection,WindDirectionDegrees,WindSpeedMPH,WindSpeedGustMPH,Humidity,HourlyPrecipIn,Conditions,Clouds,dailyrainin,SolarRadiationWatts/m^2,SoftwareType,DateUTC
2013-10-07 00:00:00,64.4,34.7,30.02,NW,308,0.0,0.0,33,0.00,,SKC,0.00,0.00,VWS V14.01,2013-10-07 05:00:00,
2013-10-07 00:01:00,64.5,34.8,30.02,NW,308,0.0,0.0,33,0.00,,SKC,0.19,0.00,VWS V14.01,2013-10-07 05:01:00,
2013-10-07 00:06:00,64.2,34.5,30.02,NW,308,0.0,0.0,33,0.00,,SKC,0.00,0.00,VWS V14.01,2013-10-07 05:06:00,
2013-10-07 00:10:00,64.1,33.7,30.02,NW,308,0.0,0.0,32,0.00,,SKC,0.00,0.00,VWS V14.01,2013-10-07 05:10:00,
2013-10-07 00:11:00,64.1,34.4,30.02,NW,308,0.0,0.0,33,0.00,,SKC,0.00,0.00,VWS V14.01,2013-10-07 05:11:00,
2013-10-07 00:16:00,64.4,33.9,30.02,NW,308,0.0,0.0,32,0.00,,SKC,0.00,0.00,VWS V14.01,2013-10-07 05:16:00,
2013-10-07 00:20:00,64.1,33.7,30.01,NW,308,0.0,0.0,32,0.00,,SKC,0.00,0.00,VWS V14.01,2013-10-07 05:20:00,
2013-10-07 00:21:00,64.2,33.8,30.01,NW,308,0.0,0.0,32,0.00,,SKC,0.00,0.00,VWS V14.01,2013-10-07 05:21:00,
2013-10-07 00:26:00,63.4,34.6,30.01,NW,308,0.0,0.0,34,0.00,,SKC,0.00,0.00,VWS V14.01,2013-10-07 05:26:00,
2013-10-07 00:30:00,63.1,34.3,30.01,NW,308,0.0,0.0,34,0.00,,SKC,0.00,0.00,VWS V14.01,2013-10-07 05:30:00,
2013-10-07 00:31:00,63.1,34.3,30.01,NW,308,0.0,0.0,34,0.00,,SKC,0.00,0.00,VWS V14.01,2013-10-07 05:31:00,
2013-10-07 00:36:00,62.8,34.0,30.01,NW,308,0.0,0.0,34,0.00,,SKC,0.00,0.00,VWS V14.01,2013-10-07 05:36:00,
2013-10-07 00:40:00,63.5,33.9,30.01,NW,308,0.0,0.0,33,0.00,,SKC,0.00,0.00,VWS V14.01,2013-10-07 05:40:00,
2013-10-07 00:41:00,63.4,33.8,30.01,NW,308,0.0,0.0,33,0.00,,SKC,0.00,0.00,VWS V14.01,2013-10-07 05:41:00,
2013-10-07 00:46:00,63.9,33.5,30.01,NW,308,0.0,0.0,32,0.00,,SKC,0.00,0.00,VWS V14.01,2013-10-07 05:46:00,
2013-10-07 00:50:00,64.1,33.7,30.01,NW,308,0.0,0.0,32,0.00,,SKC,0.00,0.00,VWS V14.01,2013-10-07 05:50:00,
2013-10-07 00:51:00,64.1,33.7,30.01,NW,308,0.0,0.0,32,0.00,,SKC,0.00,0.00,VWS V14.01,2013-10-07 05:51:00,
2013-10-07 00:56:00,63.8,33.4,30.01,NW,308,0.0,0.0,32,0.00,,SKC,0.00,0.00,VWS V14.01,2013-10-07 05:56:00,
2013-10-07 01:00:00,63.5,33.1,30.00,NW,308,0.0,0.0,32,0.00,,SKC,0.00,0.00,VWS V14.01,2013-10-07 06:00:00,
2013-10-07 01:01:00,63.5,33.1,30.00,NW,308,0.0,0.0,32,0.00,,SKC,0.00,0.00,VWS V14.01,2013-10-07 06:01:00,
2013-10-07 01:06:00,63.6,33.2,30.01,NW,308,0.0,0.0,32,0.00,,SKC,0.00,0.00,VWS V14.01,2013-10-07 06:06:00,
2013-10-07 01:10:00,63.9,32.7,30.00,NW,308,0.0,0.0,31,0.00,,SKC,0.00,0.00,VWS V14.01,2013-10-07 06:10:00,
2013-10-07 01:11:00,63.8,33.4,30.00,NW,308,0.0,0.0,32,0.00,,SKC,0.00,0.00,VWS V14.01,2013-10-07 06:11:00,
2013-10-07 01:16:00,64.0,32.8,30.00,NW,308,0.0,0.0,31,0.00,,SKC,0.00,0.00,VWS V14.01,2013-10-07 06:16:00,
2013-10-07 01:20:00,64.1,32.9,30.00,NW,308,0.0,0.0,31,0.00,,SKC,0.00,0.00,VWS V14.01,2013-10-07 06:20:00,
2013-10-07 01:21:00,64.1,32.9,30.00,NW,308,0.0,0.0,31,0.00,,SKC,0.00,0.00,VWS V14.01,2013-10-07 06:21:00,
2013-10-07 01:26:00,64.1,33.7,30.01,NW,308,0.0,0.0,32,0.00,,SKC,0.00,0.00,VWS V14.01,2013-10-07 06:26:00,
2013-10-07 01:30:00,63.9,32.7,30.01,NW,308,0.0,0.0,31,0.00,,SKC,0.00,0.00,VWS V14.01,2013-10-07 06:30:00,
2013-10-07 01:31:00,64.0,32.8,30.01,NW,308,0.0,0.0,31,0.00,,SKC,0.00,0.00,VWS V14.01,2013-10-07 06:31:00,
2013-10-07 01:36:00,63.9,32.7,30.01,NW,308,0.0,0.0,31,0.00,,SKC,0.00,0.00,VWS V14.01,2013-10-07 06:36:00,
2013-10-07 01:40:00,64.3,33.0,30.01,NW,308,0.0,0.0,31,0.00,,SKC,0.00,0.00,VWS V14.01,2013-10-07 06:40:00,
2013-10-07 01:41:00,64.3,33.0,30.01,NW,308,0.0,0.0,31,0.00,,SKC,0.00,0.00,VWS V14.01,2013-10-07 06:41:00,
2013-10-07 01:46:00,64.7,32.6,30.01,NW,308,0.0,0.0,30,0.00,,SKC,0.00,0.00,VWS V14.01,2013-10-07 06:46:00,
2013-10-07 01:50:00,64.9,32.8,30.01,NW,308,0.0,0.0,30,0.00,,SKC,0.00,0.00,VWS V14.01,2013-10-07 06:50:00,
2013-10-07 01:51:00,64.9,31.9,30.01,NW,308,0.0,0.0,29,0.00,,SKC,0.00,0.00,VWS V14.01,2013-10-07 06:51:00,
2013-10-07 01:56:00,64.8,32.7,30.01,NW,308,0.0,0.0,30,0.00,,SKC,0.00,0.00,VWS V14.01,2013-10-07 06:56:00,
2013-10-07 02:00:00,65.2,31.3,30.01,NW,308,0.0,0.0,28,0.00,,SKC,0.00,0.00,VWS V14.01,2013-10-07 07:00:00,
2013-10-07 02:01:00,65.2,32.2,30.01,NW,308,0.0,0.0,29,0.00,,SKC,0.00,0.00,VWS V14.01,2013-10-07 07:01:00,
2013-10-07 02:06:00,65.7,31.7,30.01,NW,308,0.0,0.0,28,0.00,,SKC,0.00,0.00,VWS V14.01,2013-10-07 07:06:00,
2013-10-07 02:10:00,65.4,31.5,30.01,NW,308,0.0,0.0,28,0.00,,SKC,0.00,0.00,VWS V14.01,2013-10-07 07:10:00,
2013-10-07 02:11:00,65.4,31.5,30.01,NW,308,0.0,0.0,28,0.00,,SKC,0.00,0.00,VWS V14.01,2013-10-07 07:11:00,
2013-10-07 02:16:00,65.8,31.8,30.01,NW,308,0.0,0.0,28,0.00,,SKC,0.00,0.00,VWS V14.01,2013-10-07 07:16:00,
2013-10-07 02:20:00,65.6,31.6,30.01,NW,308,0.0,0.0,28,0.00,,SKC,0.00,0.00,VWS V14.01,2013-10-07 07:20:00,
2013-10-07 02:21:00,65.6,31.6,30.01,NW,308,0.0,0.0,28,0.00,,SKC,0.00,0.00,VWS V14.01,2013-10-07 07:21:00,
2013-10-07 02:26:00,65.6,31.6,30.01,NW,308,0.0,0.0,28,0.00,,SKC,0.00,0.00,VWS V14.01,2013-10-07 07:26:00,
2013-10-07 02:30:00,65.4,31.5,30.01,NW,308,0.0,0.0,28,0.00,,SKC,0.00,0.00,VWS V14.01,2013-10-07 07:30:00,
2013-10-07 02:31:00,65.4,31.5,30.01,NW,308,0.0,0.0,28,0.00,,SKC,0.00,0.00,VWS V14.01,2013-10-07 07:31:00,
2013-10-07 02:36:00,65.4,31.5,30.01,NW,308,0.0,0.0,28,0.00,,SKC,0.00,0.00,VWS V14.01,2013-10-07 07:36:00,
2013-10-07 02:40:00,65.2,32.2,30.01,NW,308,0.0,0.0,29,0.00,,SKC,0.00,0.00,VWS V14.01,2013-10-07 07:40:00,
2013-10-07 02:41:00,65.2,32.2,30.01,NW,308,0.0,0.0,29,0.00,,SKC,0.00,0.00,VWS V14.01,2013-10-07 07:41:00,
2013-10-07 02:46:00,64.9,31.9,30.01,NW,308,0.0,0.0,29,0.00,,SKC,0.00,0.00,VWS V14.01,2013-10-07 07:46:00,
2013-10-07 02:50:00,64.4,32.3,30.01,NW,308,0.0,0.0,30,0.00,,SKC,0.00,0.00,VWS V14.01,2013-10-07 07:50:00,
2013-10-07 02:51:00,64.4,32.3,30.01,NW,308,0.0,0.0,30,0.00,,SKC,0.00,0.00,VWS V14.01,2013-10-07 07:51:00,
2013-10-07 02:56:00,63.6,32.4,30.01,NW,308,0.0,0.0,31,0.00,,SKC,0.00,0.00,VWS V14.01,2013-10-07 07:56:00,
2013-10-07 03:00:00,63.2,32.1,30.01,NW,308,0.0,0.0,31,0.00,,SKC,0.00,0.00,VWS V14.01,2013-10-07 08:00:00,
2013-10-07 03:01:00,63.2,32.9,30.01,NW,308,0.0,0.0,32,0.00,,SKC,0.00,0.00,VWS V14.01,2013-10-07 08:01:00,
2013-10-07 03:06:00,62.6,33.9,30.01,NW,308,0.0,0.0,34,0.00,,SKC,0.00,0.00,VWS V14.01,2013-10-07 08:06:00,
2013-10-07 03:10:00,61.6,33.7,30.00,NW,308,0.0,0.0,35,0.00,,SKC,0.00,0.00,VWS V14.01,2013-10-07 08:10:00,
2013-10-07 03:11:00,61.6,33.7,30.00,NW,308,0.0,0.0,35,0.00,,SKC,0.00,0.00,VWS V14.01,2013-10-07 08:11:00,
2013-10-07 03:16:00,61.1,34.0,30.00,NW,308,0.0,0.0,36,0.00,,SKC,0.00,0.00,VWS V14.01,2013-10-07 08:16:00,
2013-10-07 03:20:00,60.8,33.7,30.00,NW,308,0.0,0.0,36,0.00,,SKC,0.00,0.00,VWS V14.01,2013-10-07 08:20:00,
2013-10-07 03:21:00,60.8,33.7,30.00,NW,308,0.0,0.0,36,0.00,,SKC,0.00,0.00,VWS V14.01,2013-10-07 08:21:00,
2013-10-07 03:26:00,61.2,33.3,30.01,NW,308,0.0,0.0,35,0.00,,SKC,0.00,0.00,VWS V14.01,2013-10-07 08:26:00,
2013-10-07 03:30:00,59.0,38.3,30.01,NW,308,0.0,0.0,46,0.00,,SKC,0.00,0.00,VWS V14.01,2013-10-07 08:30:00,
2013-10-07 03:31:00,59.4,37.5,30.01,NW,308,0.0,0.0,44,0.00,,SKC,0.00,0.00,VWS V14.01,2013-10-07 08:31:00,
2013-10-07 03:36:00,57.1,38.7,30.00,NW,308,0.0,0.0,50,0.00,,SKC,0.00,0.00,VWS V14.01,2013-10-07 08:36:00,
2013-10-07 03:40:00,56.6,36.6,30.00,NW,308,0.0,0.0,47,0.00,,SKC,0.00,0.00,VWS V14.01,2013-10-07 08:40:00,
2013-10-07 03:41:00,56.5,36.5,30.00,NW,308,0.0,0.0,47,0.00,,SKC,0.00,0.00,VWS V14.01,2013-10-07 08:41:00,
2013-10-07 03:46:00,57.0,35.9,30.00,NW,308,0.0,0.0,45,0.00,,SKC,0.00,0.00,VWS V14.01,2013-10-07 08:46:00,
2013-10-07 03:50:00,58.0,35.7,30.00,NW,308,0.0,0.0,43,0.00,,SKC,0.00,0.00,VWS V14.01,2013-10-07 08:50:00,
2013-10-07 03:51:00,57.9,35.0,30.00,NW,308,0.0,0.0,42,0.00,,SKC,0.00,0.00,VWS V14.01,2013-10-07 08:51:00,
2013-10-07 03:56:00,58.7,35.1,30.00,NW,308,0.0,0.0,41,0.00,,SKC,0.00,0.00,VWS V14.01,2013-10-07 08:56:00,
2013-10-07 04:00:00,58.9,34.0,30.00,NW,308,0.0,0.0,39,0.00,,SKC,0.00,0.00,VWS V14.01,2013-10-07 09:00:00,
2013-10-07 04:01:00,58.8,33.9,30.00,NW,308,0.0,0.0,39,0.00,,SKC,0.00,0.00,VWS V14.01,2013-10-07 09:01:00,
2013-10-07 04:06:00,59.0,34.1,30.00,NW,308,0.0,0.0,39,0.00,,SKC,0.00,0.00,VWS V14.01,2013-10-07 09:06:00,
2013-10-07 04:10:00,59.5,33.9,30.00,NW,308,0.0,0.0,38,0.00,,SKC,0.00,0.00,VWS V14.01,2013-10-07 09:10:00,
2013-10-07 04:11:00,59.4,33.8,30.00,NW,308,0.0,0.0,38,0.00,,SKC,0.00,0.00,VWS V14.01,2013-10-07 09:11:00,
2013-10-07 04:16:00,59.7,34.1,30.00,NW,308,0.0,0.0,38,0.00,,SKC,0.00,0.00,VWS V14.01,2013-10-07 09:16:00,
2013-10-07 04:20:00,59.5,34.5,30.00,NW,308,0.0,0.0,39,0.00,,SKC,0.00,0.00,VWS V14.01,2013-10-07 09:20:00,
2013-10-07 04:21:00,59.6,34.6,30.00,NW,308,0.0,0.0,39,0.00,,SKC,0.00,0.00,VWS V14.01,2013-10-07 09:21:00,
2013-10-07 04:26:00,58.8,35.2,30.00,NW,308,0.0,0.0,41,0.00,,SKC,0.00,0.00,VWS V14.01,2013-10-07 09:26:00,
2013-10-07 04:30:00,57.5,36.3,30.00,NW,308,0.0,0.0,45,0.00,,SKC,0.00,0.00,VWS V14.01,2013-10-07 09:30:00,
2013-10-07 04:31:00,57.6,35.9,30.00,NW,308,0.0,0.0,44,0.00,,SKC,0.00,0.00,VWS V14.01,2013-10-07 09:31:00,
2013-10-07 04:36:00,56.6,36.6,30.00,NW,308,0.0,0.0,47,0.00,,SKC,0.00,0.00,VWS V14.01,2013-10-07 09:36:00,
2013-10-07 04:40:00,55.8,36.9,30.00,NW,308,0.0,0.0,49,0.00,,SKC,0.00,0.00,VWS V14.01,2013-10-07 09:40:00,
2013-10-07 04:41:00,55.8,37.5,30.00,NW,308,0.0,0.0,50,0.00,,SKC,0.00,0.00,VWS V14.01,2013-10-07 09:41:00,
2013-10-07 04:46:00,55.8,36.4,30.00,NW,308,0.0,0.0,48,0.00,,SKC,0.00,0.00,VWS V14.01,2013-10-07 09:46:00,
2013-10-07 04:50:00,56.0,35.5,30.00,NW,308,0.0,0.0,46,0.00,,SKC,0.00,0.00,VWS V14.01,2013-10-07 09:50:00,
2013-10-07 04:51:00,55.9,36.0,30.00,NW,308,0.0,0.0,47,0.00,,SKC,0.00,0.00,VWS V14.01,2013-10-07 09:51:00,
2013-10-07 04:56:00,56.0,35.5,30.00,NW,308,0.0,0.0,46,0.00,,SKC,0.00,0.00,VWS V14.01,2013-10-07 09:56:00,
2013-10-07 05:00:00,56.0,35.0,30.00,NW,308,0.0,0.0,45,0.00,,SKC,0.00,0.00,VWS V14.01,2013-10-07 10:00:00,
2013-10-07 05:01:00,56.0,35.0,30.00,NW,308,0.0,0.0,45,0.00,,SKC,0.00,0.00,VWS V14.01,2013-10-07 10:01:00,
2013-10-07 05:06:00,56.1,35.1,30.00,NW,308,0.0,0.0,45,0.00,,SKC,0.00,0.00,VWS V14.01,2013-10-07 10:06:00,
2013-10-07 05:10:00,56.1,36.2,30.00,NW,308,0.0,0.0,47,0.00,,SKC,0.00,0.00,VWS V14.01,2013-10-07 10:10:00,
2013-10-07 05:11:00,56.1,36.2,30.00,NW,308,0.0,0.0,47,0.00,,SKC,0.00,0.00,VWS V14.01,2013-10-07 10:11:00,
2013-10-07 05:16:00,55.8,36.4,30.00,NW,308,0.0,0.0,48,0.00,,SKC,0.00,0.00,VWS V14.01,2013-10-07 10:16:00,
2013-10-07 05:20:00,56.6,35.0,30.00,NW,308,0.0,1.0,44,0.00,,SKC,0.00,0.00,VWS V14.01,2013-10-07 10:20:00,
2013-10-07 05:21:00,56.4,35.3,30.00,NW,308,0.0,1.0,45,0.00,,SKC,0.00,0.00,VWS V14.01,2013-10-07 10:21:00,
2013-10-07 05:26:00,57.9,35.0,30.00,NW,308,0.0,2.0,42,0.00,,SKC,0.00,0.00,VWS V14.01,2013-10-07 10:26:00,
2013-10-07 05:30:00,59.2,34.3,30.00,NW,308,1.0,2.0,39,0.00,,SKC,0.00,0.00,VWS V14.01,2013-10-07 10:30:00,
2013-10-07 05:31:00,59.0,34.7,30.00,NW,308,1.0,2.0,40,0.00,,SKC,0.00,0.00,VWS V14.01,2013-10-07 10:31:00,
2013-10-07 05:36:00,59.8,34.8,30.00,NW,308,0.0,4.0,39,0.00,,SKC,0.00,0.00,VWS V14.01,2013-10-07 10:36:00,
2013-10-07 05:40:00,60.0,34.3,30.00,NW,308,0.0,4.0,38,0.00,,SKC,0.00,0.00,VWS V14.01,2013-10-07 10:40:00,
2013-10-07 05:41:00,60.0,34.3,30.00,NW,308,0.0,4.0,38,0.00,,SKC,0.00,0.00,VWS V14.01,2013-10-07 10:41:00,
2013-10-07 05:46:00,59.9,34.2,30.00,NW,308,0.0,4.0,38,0.00,,SKC,0.00,0.00,VWS V14.01,2013-10-07 10:46:00,
2013-10-07 05:50:00,59.8,34.2,30.00,NW,308,1.0,4.0,38,0.00,,SKC,0.00,0.00,VWS V14.01,2013-10-07 10:50:00,
2013-10-07 05:51:00,59.8,34.2,30.00,NW,308,1.0,4.0,38,0.00,,SKC,0.00,0.00,VWS V14.01,2013-10-07 10:51:00,
2013-10-07 05:56:00,59.8,34.8,30.01,NW,308,0.0,2.0,39,0.00,,SKC,0.00,0.00,VWS V14.01,2013-10-07 10:56:00,
2013-10-07 06:00:00,58.7,34.5,30.01,NW,308,0.0,2.0,40,0.00,,SKC,0.00,0.00,VWS V14.01,2013-10-07 11:00:00,
2013-10-07 06:01:00,58.7,34.5,30.01,NW,308,0.0,2.0,40,0.00,,SKC,0.00,0.00,VWS V14.01,2013-10-07 11:01:00,
2013-10-07 06:06:00,57.9,34.4,30.01,NW,308,4.0,4.0,41,0.00,,SKC,0.00,0.00,VWS V14.01,2013-10-07 11:06:00,
2013-10-07 06:10:00,58.6,34.4,30.01,NW,308,0.0,4.0,40,0.00,,SKC,0.00,0.00,VWS V14.01,2013-10-07 11:10:00,
2013-10-07 06:11:00,58.4,34.2,30.01,NW,308,0.0,4.0,40,0.00,,SKC,0.00,0.00,VWS V14.01,2013-10-07 11:11:00,
2013-10-07 06:16:00,58.5,34.9,30.01,NW,308,0.0,1.0,41,0.00,,SKC,0.00,0.00,VWS V14.01,2013-10-07 11:16:00,
2013-10-07 06:20:00,58.4,34.2,30.01,NW,308,0.0,1.0,40,0.00,,SKC,0.00,0.00,VWS V14.01,2013-10-07 11:20:00,
2013-10-07 06:21:00,58.4,34.2,30.01,NW,308,1.0,1.0,40,0.00,,SKC,0.00,0.00,VWS V14.01,2013-10-07 11:21:00,
2013-10-07 06:26:00,58.9,34.0,30.01,NW,308,0.0,1.0,39,0.00,,SKC,0.00,0.00,VWS V14.01,2013-10-07 11:26:00,
2013-10-07 06:30:00,59.5,33.9,30.01,NW,308,1.0,2.0,38,0.00,,SKC,0.00,0.00,VWS V14.01,2013-10-07 11:30:00,
2013-10-07 06:31:00,59.4,33.8,30.01,NW,308,0.0,2.0,38,0.00,,SKC,0.00,0.00,VWS V14.01,2013-10-07 11:31:00,
2013-10-07 06:36:00,59.8,34.2,30.01,NW,308,0.0,1.0,38,0.00,,SKC,0.00,0.00,VWS V14.01,2013-10-07 11:36:00,
2013-10-07 06:40:00,59.9,34.2,30.01,NW,308,0.0,4.0,38,0.00,,SKC,0.00,0.00,VWS V14.01,2013-10-07 11:40:00,
2013-10-07 06:41:00,59.9,34.2,30.01,NW,308,0.0,4.0,38,0.00,,SKC,0.00,0.00,VWS V14.01,2013-10-07 11:41:00,
2013-10-07 06:46:00,60.1,33.8,30.01,NW,308,0.0,4.0,37,0.00,,SKC,0.00,0.00,VWS V14.01,2013-10-07 11:46:00,
2013-10-07 06:50:00,60.1,33.8,30.01,NW,308,0.0,4.0,37,0.00,,SKC,0.00,0.00,VWS V14.01,2013-10-07 11:50:00,
2013-10-07 06:51:00,60.1,33.8,30.01,NW,308,1.0,4.0,37,0.00,,SKC,0.00,0.00,VWS V14.01,2013-10-07 11:51:00,
2013-10-07 06:56:00,60.1,33.8,30.01,NW,308,2.0,2.0,37,0.00,,SKC,0.00,0.00,VWS V14.01,2013-10-07 11:56:00,
2013-10-07 07:00:00,60.3,33.9,30.01,NW,308,1.0,4.0,37,0.00,,SKC,0.00,0.00,VWS V14.01,2013-10-07 12:00:00,
2013-10-07 07:01:00,60.2,33.8,30.01,NW,308,1.0,4.0,37,0.00,,SKC,0.00,0.00,VWS V14.01,2013-10-07 12:01:00,
2013-10-07 07:06:00,60.3,33.9,30.01,NW,308,0.0,2.0,37,0.00,,SKC,0.00,0.00,VWS V14.01,2013-10-07 12:06:00,
2013-10-07 07:10:00,60.2,33.8,30.01,NW,308,0.0,4.0,37,0.00,,SKC,0.00,0.00,VWS V14.01,2013-10-07 12:10:00,
2013-10-07 07:11:00,60.2,33.8,30.01,NW,308,1.0,4.0,37,0.00,,SKC,0.00,0.00,VWS V14.01,2013-10-07 12:11:00,
2013-10-07 07:16:00,60.0,34.3,30.01,NW,308,0.0,2.0,38,0.00,,SKC,0.00,0.00,VWS V14.01,2013-10-07 12:16:00,
2013-10-07 07:20:00,59.8,34.2,30.01,NW,308,0.0,2.0,38,0.00,,SKC,0.00,0.00,VWS V14.01,2013-10-07 12:20:00,
2013-10-07 07:21:00,59.8,33.5,30.01,NW,308,0.0,2.0,37,0.00,,SKC,0.00,0.00,VWS V14.01,2013-10-07 12:21:00,
2013-10-07 07:26:00,59.7,34.1,30.01,NW,308,0.0,2.0,38,0.00,,SKC,0.00,0.00,VWS V14.01,2013-10-07 12:26:00,
2013-10-07 07:30:00,59.6,34.0,30.01,NW,308,0.0,2.0,38,0.00,,SKC,0.00,0.00,VWS V14.01,2013-10-07 12:30:00,
2013-10-07 07:31:00,59.6,34.0,30.01,NW,308,0.0,2.0,38,0.00,,SKC,0.00,0.00,VWS V14.01,2013-10-07 12:31:00,
2013-10-07 07:36:00,59.6,34.0,30.01,NW,308,0.0,1.0,38,0.00,,SKC,0.00,5.00,VWS V14.01,2013-10-07 12:36:00,
2013-10-07 07:40:00,59.6,34.0,30.01,NW,308,0.0,1.0,38,0.00,,SKC,0.00,9.00,VWS V14.01,2013-10-07 12:40:00,
2013-10-07 07:41:00,59.5,33.9,30.01,NW,308,0.0,1.0,38,0.00,,SKC,0.00,9.00,VWS V14.01,2013-10-07 12:41:00,
2013-10-07 07:46:00,59.9,33.6,30.01,NW,308,0.0,0.0,37,0.00,,SKC,0.00,11.00,VWS V14.01,2013-10-07 12:46:00,
2013-10-07 07:50:00,60.5,33.4,30.01,NW,308,0.0,2.0,36,0.00,,SKC,0.00,14.00,VWS V14.01,2013-10-07 12:50:00,
2013-10-07 07:51:00,60.4,33.3,30.01,NW,308,0.0,2.0,36,0.00,,SKC,0.00,12.00,VWS V14.01,2013-10-07 12:51:00,
2013-10-07 07:55:00,60.8,33.7,30.01,NW,308,0.0,0.0,36,0.00,,SKC,0.00,14.00,VWS V14.01,2013-10-07 12:55:00,
2013-10-07 08:00:00,61.1,34.0,30.01,NW,308,0.0,1.0,36,0.00,,SKC,0.00,16.00,VWS V14.01,2013-10-07 13:00:00,
2013-10-07 08:05:00,61.1,34.0,30.02,NW,308,0.0,2.0,36,0.00,,SKC,0.00,18.00,VWS V14.01,2013-10-07 13:05:00,
2013-10-07 08:10:00,61.2,34.1,30.02,NW,308,0.0,2.0,36,0.00,,SKC,0.00,21.00,VWS V14.01,2013-10-07 13:10:00,
2013-10-07 08:15:00,61.4,34.2,30.02,NW,308,1.0,2.0,36,0.00,,SKC,0.00,58.00,VWS V14.01,2013-10-07 13:15:00,
2013-10-07 08:20:00,61.7,34.5,30.02,NW,308,1.0,2.0,36,0.00,,SKC,0.00,76.00,VWS V14.01,2013-10-07 13:20:00,
2013-10-07 08:25:00,62.0,34.8,30.02,NW,308,0.0,0.0,36,0.00,,SKC,0.00,95.00,VWS V14.01,2013-10-07 13:25:00,
2013-10-07 08:30:00,62.1,34.8,30.02,NW,308,0.0,2.0,36,0.00,,SKC,0.00,113.00,VWS V14.01,2013-10-07 13:30:00,
2013-10-07 08:35:00,62.2,34.9,30.02,NW,308,0.0,1.0,36,0.00,,SKC,0.00,135.00,VWS V14.01,2013-10-07 13:35:00,
2013-10-07 08:40:00,62.4,35.8,30.02,NW,308,0.0,1.0,37,0.00,,SKC,0.00,155.00,VWS V14.01,2013-10-07 13:40:00,
2013-10-07 08:45:00,62.3,39.5,30.03,NW,308,0.0,0.0,43,0.00,,SKC,0.00,181.00,VWS V14.01,2013-10-07 13:45:00,
2013-10-07 08:50:00,62.3,37.7,30.03,NW,308,0.0,0.0,40,0.00,,SKC,0.00,204.00,VWS V14.01,2013-10-07 13:50:00,
2013-10-07 08:55:00,62.7,40.5,30.03,NW,308,0.0,1.0,44,0.00,,SKC,0.00,227.00,VWS V14.01,2013-10-07 13:55:00,
2013-10-07 09:00:00,63.0,40.8,30.03,NW,308,0.0,1.0,44,0.00,,SKC,0.00,244.00,VWS V14.01,2013-10-07 14:00:00,
2013-10-07 09:05:00,63.4,38.7,30.03,NW,308,0.0,2.0,40,0.00,,SKC,0.00,262.00,VWS V14.01,2013-10-07 14:05:00,
2013-10-07 09:10:00,63.6,38.2,30.03,NW,308,2.0,4.0,39,0.00,,SKC,0.00,281.00,VWS V14.01,2013-10-07 14:10:00,
2013-10-07 09:15:00,63.9,39.8,30.04,NW,308,0.0,4.0,41,0.00,,SKC,0.00,299.00,VWS V14.01,2013-10-07 14:15:00,
2013-10-07 09:20:00,64.2,37.4,30.04,NW,308,0.0,4.0,37,0.00,,SKC,0.00,318.00,VWS V14.01,2013-10-07 14:20:00,
2013-10-07 09:25:00,64.5,36.3,30.04,NW,308,2.0,2.0,35,0.00,,SKC,0.00,336.00,VWS V14.01,2013-10-07 14:25:00,
2013-10-07 09:30:00,64.7,37.2,30.04,NW,308,0.0,4.0,36,0.00,,SKC,0.00,353.00,VWS V14.01,2013-10-07 14:30:00,
2013-10-07 09:35:00,65.3,38.4,30.04,NW,308,0.0,4.0,37,0.00,,SKC,0.00,369.00,VWS V14.01,2013-10-07 14:35:00,
2013-10-07 09:40:00,65.8,40.2,30.04,NW,308,4.0,4.0,39,0.00,,SKC,0.00,387.00,VWS V14.01,2013-10-07 14:40:00,
2013-10-07 09:45:00,66.3,40.6,30.03,NW,308,1.0,5.0,39,0.00,,SKC,0.00,404.00,VWS V14.01,2013-10-07 14:45:00,
2013-10-07 09:50:00,66.9,41.2,30.03,NW,308,4.0,5.0,39,0.00,,SKC,0.00,422.00,VWS V14.01,2013-10-07 14:50:00,
2013-10-07 09:55:00,66.5,41.5,30.03,NW,308,5.0,5.0,40,0.00,,SKC,0.00,438.00,VWS V14.01,2013-10-07 14:55:00,
2013-10-07 10:00:00,66.6,42.2,30.03,NW,308,1.0,5.0,41,0.00,,SKC,0.00,455.00,VWS V14.01,2013-10-07 15:00:00,
2013-10-07 10:05:00,67.1,42.6,30.03,NW,308,1.0,5.0,41,0.00,,SKC,0.00,471.00,VWS V14.01,2013-10-07 15:05:00,
2013-10-07 10:10:00,67.7,43.2,30.03,NW,308,2.0,5.0,41,0.00,,SKC,0.00,487.00,VWS V14.01,2013-10-07 15:10:00,
2013-10-07 10:15:00,67.9,44.0,30.03,NW,308,2.0,5.0,42,0.00,,SKC,0.00,503.00,VWS V14.01,2013-10-07 15:15:00,
2013-10-07 10:20:00,68.7,43.4,30.03,NW,308,2.0,5.0,40,0.00,,SKC,0.00,520.00,VWS V14.01,2013-10-07 15:20:00,
2013-10-07 10:21:00,68.5,43.9,30.03,NW,308,5.0,5.0,41,0.00,,SKC,0.00,517.00,VWS V14.01,2013-10-07 15:21:00,
2013-10-07 10:26:00,69.2,43.9,30.03,NW,308,1.0,6.0,40,0.00,,SKC,0.00,533.00,VWS V14.01,2013-10-07 15:26:00,
2013-10-07 10:30:00,69.7,43.7,30.03,NW,308,6.0,7.0,39,0.00,,SKC,0.00,552.00,VWS V14.01,2013-10-07 15:30:00,
2013-10-07 10:31:00,69.6,43.6,30.03,NW,308,2.0,7.0,39,0.00,,SKC,0.00,548.00,VWS V14.01,2013-10-07 15:31:00,
2013-10-07 10:36:00,69.9,43.2,30.03,NW,308,6.0,6.0,38,0.00,,SKC,0.00,564.00,VWS V14.01,2013-10-07 15:36:00,
2013-10-07 10:40:00,70.2,44.1,30.03,NW,308,4.0,6.0,39,0.00,,SKC,0.00,582.00,VWS V14.01,2013-10-07 15:40:00,
2013-10-07 10:41:00,70.1,44.7,30.03,NW,308,4.0,6.0,40,0.00,,SKC,0.00,580.00,VWS V14.01,2013-10-07 15:41:00,
2013-10-07 10:46:00,70.9,43.4,30.03,NW,308,4.0,7.0,37,0.00,,SKC,0.00,592.00,VWS V14.01,2013-10-07 15:46:00,
2013-10-07 10:50:00,71.1,42.8,30.03,NW,308,5.0,7.0,36,0.00,,SKC,0.00,610.00,VWS V14.01,2013-10-07 15:50:00,
2013-10-07 10:51:00,71.1,44.2,30.03,NW,308,5.0,7.0,38,0.00,,SKC,0.00,606.00,VWS V14.01,2013-10-07 15:51:00,
2013-10-07 10:56:00,71.4,42.3,30.03,NW,308,4.0,7.0,35,0.00,,SKC,0.00,621.00,VWS V14.01,2013-10-07 15:56:00,
2013-10-07 11:00:00,72.0,44.3,30.03,NW,308,4.0,7.0,37,0.00,,SKC,0.00,633.00,VWS V14.01,2013-10-07 16:00:00,
2013-10-07 11:01:00,71.9,43.5,30.03,NW,308,1.0,7.0,36,0.00,,SKC,0.00,633.00,VWS V14.01,2013-10-07 16:01:00,
2013-10-07 11:06:00,72.2,42.3,30.02,NW,308,4.0,6.0,34,0.00,,SKC,0.00,643.00,VWS V14.01,2013-10-07 16:06:00,
2013-10-07 11:10:00,73.0,42.2,30.02,NW,308,4.0,7.0,33,0.00,,SKC,0.00,659.00,VWS V14.01,2013-10-07 16:10:00,
2013-10-07 11:11:00,72.9,43.7,30.02,NW,308,4.0,7.0,35,0.00,,SKC,0.00,657.00,VWS V14.01,2013-10-07 16:11:00,
2013-10-07 11:16:00,73.3,43.3,30.02,NW,308,0.0,6.0,34,0.00,,SKC,0.00,670.00,VWS V14.01,2013-10-07 16:16:00,
2013-10-07 11:20:00,74.3,45.7,30.02,NW,308,2.0,7.0,36,0.00,,SKC,0.00,684.00,VWS V14.01,2013-10-07 16:20:00,
2013-10-07 11:21:00,74.0,44.6,30.02,NW,308,1.0,6.0,35,0.00,,SKC,0.00,682.00,VWS V14.01,2013-10-07 16:21:00,
2013-10-07 11:26:00,74.1,42.4,30.02,NW,308,0.0,6.0,32,0.00,,SKC,0.00,693.00,VWS V14.01,2013-10-07 16:26:00,
2013-10-07 11:30:00,73.9,43.8,30.02,NW,308,7.0,7.0,34,0.00,,SKC,0.00,705.00,VWS V14.01,2013-10-07 16:30:00,
2013-10-07 11:31:00,73.8,43.7,30.02,NW,308,2.0,7.0,34,0.00,,SKC,0.00,703.00,VWS V14.01,2013-10-07 16:31:00,
2013-10-07 11:36:00,75.1,40.7,30.01,NW,308,7.0,7.0,29,0.00,,SKC,0.00,714.00,VWS V14.01,2013-10-07 16:36:00,
2013-10-07 11:40:00,76.2,41.7,30.01,NW,308,7.0,11.0,29,0.00,,SKC,0.00,726.00,VWS V14.01,2013-10-07 16:40:00,
2013-10-07 11:41:00,75.9,44.0,30.01,NW,308,6.0,11.0,32,0.00,,SKC,0.00,724.00,VWS V14.01,2013-10-07 16:41:00,
2013-10-07 11:46:00,75.8,41.3,30.01,NW,308,5.0,11.0,29,0.00,,SKC,0.00,733.00,VWS V14.01,2013-10-07 16:46:00,
2013-10-07 11:50:00,75.6,41.1,30.01,NW,308,5.0,11.0,29,0.00,,SKC,0.00,745.00,VWS V14.01,2013-10-07 16:50:00,
2013-10-07 11:51:00,75.6,41.1,30.01,NW,308,7.0,11.0,29,0.00,,SKC,0.00,745.00,VWS V14.01,2013-10-07 16:51:00,
2013-10-07 11:56:00,75.7,41.2,30.01,NW,308,7.0,9.0,29,0.00,,SKC,0.00,752.00,VWS V14.01,2013-10-07 16:56:00,
2013-10-07 12:00:00,76.4,40.9,30.01,NW,308,5.0,9.0,28,0.00,,SKC,0.00,761.00,VWS V14.01,2013-10-07 17:00:00,
2013-10-07 12:01:00,76.3,38.9,30.01,NW,308,7.0,9.0,26,0.00,,SKC,0.00,759.00,VWS V14.01,2013-10-07 17:01:00,
2013-10-07 12:06:00,76.6,40.2,30.00,NW,308,8.0,11.0,27,0.00,,SKC,0.00,768.00,VWS V14.01,2013-10-07 17:06:00,
2013-10-07 12:10:00,76.4,40.0,30.00,NW,308,0.0,11.0,27,0.00,,SKC,0.00,777.00,VWS V14.01,2013-10-07 17:10:00,
2013-10-07 12:11:00,76.5,41.0,30.00,NW,308,1.0,11.0,28,0.00,,SKC,0.00,775.00,VWS V14.01,2013-10-07 17:11:00,
2013-10-07 12:16:00,76.4,40.9,30.00,NW,308,8.0,12.0,28,0.00,,SKC,0.00,782.00,VWS V14.01,2013-10-07 17:16:00,
2013-10-07 12:20:00,76.4,40.9,30.00,NW,308,5.0,12.0,28,0.00,,SKC,0.00,791.00,VWS V14.01,2013-10-07 17:20:00,
2013-10-07 12:21:00,76.4,40.9,30.00,NW,308,7.0,12.0,28,0.00,,SKC,0.00,789.00,VWS V14.01,2013-10-07 17:21:00,
2013-10-07 12:26:00,76.8,41.3,30.00,NW,308,4.0,13.0,28,0.00,,SKC,0.00,795.00,VWS V14.01,2013-10-07 17:26:00,
2013-10-07 12:30:00,76.6,41.1,30.00,NW,308,5.0,13.0,28,0.00,,SKC,0.00,803.00,VWS V14.01,2013-10-07 17:30:00,
2013-10-07 12:31:00,76.8,40.3,30.00,NW,308,5.0,13.0,27,0.00,,SKC,0.00,803.00,VWS V14.01,2013-10-07 17:31:00,
2013-10-07 12:35:00,77.2,42.5,30.00,NW,308,4.0,7.0,29,0.00,,SKC,0.00,807.00,VWS V14.01,2013-10-07 17:35:00,
2013-10-07 12:40:00,77.4,42.7,30.00,NW,308,5.0,9.0,29,0.00,,SKC,0.00,810.00,VWS V14.01,2013-10-07 17:40:00,
2013-10-07 12:45:00,78.0,43.2,29.99,NW,308,2.0,7.0,29,0.00,,SKC,0.00,816.00,VWS V14.01,2013-10-07 17:45:00,
2013-10-07 12:50:00,78.2,41.5,29.99,NW,308,5.0,7.0,27,0.00,,SKC,0.00,821.00,VWS V14.01,2013-10-07 17:50:00,
2013-10-07 12:55:00,77.8,43.9,29.99,NW,308,5.0,7.0,30,0.00,,SKC,0.00,823.00,VWS V14.01,2013-10-07 17:55:00,
2013-10-07 13:00:00,77.9,43.1,29.99,NW,308,4.0,8.0,29,0.00,,SKC,0.00,831.00,VWS V14.01,2013-10-07 18:00:00,
2013-10-07 13:01:00,77.8,42.1,29.99,NW,308,0.0,8.0,28,0.00,,SKC,0.00,824.00,VWS V14.01,2013-10-07 18:01:00,
2013-10-07 13:06:00,77.8,43.0,29.98,NW,308,5.0,6.0,29,0.00,,SKC,0.00,831.00,VWS V14.01,2013-10-07 18:06:00,
2013-10-07 13:10:00,78.2,42.5,29.98,NW,308,4.0,13.0,28,0.00,,SKC,0.00,833.00,VWS V14.01,2013-10-07 18:10:00,
2013-10-07 13:11:00,78.0,44.1,29.98,NW,308,8.0,13.0,30,0.00,,SKC,0.00,831.00,VWS V14.01,2013-10-07 18:11:00,
2013-10-07 13:16:00,78.3,43.5,29.97,NW,308,6.0,9.0,29,0.00,,SKC,0.00,833.00,VWS V14.01,2013-10-07 18:16:00,
2013-10-07 13:20:00,78.8,44.8,29.97,NW,308,5.0,9.0,30,0.00,,SKC,0.00,833.00,VWS V14.01,2013-10-07 18:20:00,
2013-10-07 13:21:00,78.7,42.9,29.97,NW,308,5.0,9.0,28,0.00,,SKC,0.00,833.00,VWS V14.01,2013-10-07 18:21:00,
2013-10-07 13:26:00,78.6,42.8,29.97,NW,308,0.0,9.0,28,0.00,,SKC,0.00,833.00,VWS V14.01,2013-10-07 18:26:00,
2013-10-07 13:30:00,79.2,42.4,29.97,NW,307,2.0,12.0,27,0.00,,SKC,0.00,837.00,VWS V14.01,2013-10-07 18:30:00,
2013-10-07 13:31:00,79.1,42.3,29.97,NW,307,4.0,12.0,27,0.00,,SKC,0.00,835.00,VWS V14.01,2013-10-07 18:31:00,
2013-10-07 13:36:00,79.2,40.4,29.97,NW,307,2.0,7.0,25,0.00,,SKC,0.00,837.00,VWS V14.01,2013-10-07 18:36:00,
2013-10-07 13:40:00,78.9,40.1,29.96,NW,307,5.0,7.0,25,0.00,,SKC,0.00,835.00,VWS V14.01,2013-10-07 18:40:00,
2013-10-07 13:41:00,78.8,39.0,29.96,NW,307,0.0,7.0,24,0.00,,SKC,0.00,837.00,VWS V14.01,2013-10-07 18:41:00,
2013-10-07 13:46:00,79.7,38.7,29.96,NW,307,11.0,11.0,23,0.00,,SKC,0.00,835.00,VWS V14.01,2013-10-07 18:46:00,
2013-10-07 13:50:00,79.7,38.7,29.96,NW,307,5.0,11.0,23,0.00,,SKC,0.00,831.00,VWS V14.01,2013-10-07 18:50:00,
2013-10-07 13:51:00,79.6,40.7,29.96,NW,307,2.0,11.0,25,0.00,,SKC,0.00,831.00,VWS V14.01,2013-10-07 18:51:00,
2013-10-07 13:56:00,80.2,41.2,29.96,NW,307,6.0,8.0,25,0.00,,SKC,0.00,831.00,VWS V14.01,2013-10-07 18:56:00,
2013-10-07 14:00:00,79.9,36.5,29.95,NW,307,2.0,11.0,21,0.00,,SKC,0.00,826.00,VWS V14.01,2013-10-07 19:00:00,
2013-10-07 14:01:00,80.1,36.7,29.95,NW,307,5.0,11.0,21,0.00,,SKC,0.00,826.00,VWS V14.01,2013-10-07 19:01:00,
2013-10-07 14:06:00,80.0,38.9,29.95,NW,307,5.0,7.0,23,0.00,,SKC,0.00,826.00,VWS V14.01,2013-10-07 19:06:00,
2013-10-07 14:10:00,79.9,35.3,29.95,NW,307,5.0,8.0,20,0.00,,SKC,0.00,821.00,VWS V14.01,2013-10-07 19:10:00,
2013-10-07 14:11:00,80.2,36.8,29.95,NW,307,5.0,8.0,21,0.00,,SKC,0.00,823.00,VWS V14.01,2013-10-07 19:11:00,
2013-10-07 14:16:00,80.1,39.0,29.95,NW,307,2.0,7.0,23,0.00,,SKC,0.00,816.00,VWS V14.01,2013-10-07 19:16:00,
2013-10-07 14:20:00,80.3,39.2,29.94,NW,307,4.0,7.0,23,0.00,,SKC,0.00,812.00,VWS V14.01,2013-10-07 19:20:00,
2013-10-07 14:21:00,80.2,39.1,29.94,NW,307,2.0,7.0,23,0.00,,SKC,0.00,812.00,VWS V14.01,2013-10-07 19:21:00,
2013-10-07 14:26:00,80.1,40.1,29.94,NW,307,4.0,7.0,24,0.00,,SKC,0.00,807.00,VWS V14.01,2013-10-07 19:26:00,
2013-10-07 14:30:00,80.6,41.6,29.94,NW,307,5.0,11.0,25,0.00,,SKC,0.00,800.00,VWS V14.01,2013-10-07 19:30:00,
2013-10-07 14:31:00,80.5,40.4,29.94,NW,307,7.0,11.0,24,0.00,,SKC,0.00,802.00,VWS V14.01,2013-10-07 19:31:00,
2013-10-07 14:36:00,80.8,38.5,29.93,NW,307,5.0,9.0,22,0.00,,SKC,0.00,795.00,VWS V14.01,2013-10-07 19:36:00,
2013-10-07 14:40:00,80.5,40.4,29.93,NW,307,0.0,9.0,24,0.00,,SKC,0.00,786.00,VWS V14.01,2013-10-07 19:40:00,
2013-10-07 14:41:00,80.4,39.2,29.93,NW,307,2.0,9.0,23,0.00,,SKC,0.00,789.00,VWS V14.01,2013-10-07 19:41:00,
2013-10-07 14:46:00,80.9,39.7,29.93,NW,307,2.0,6.0,23,0.00,,SKC,0.00,782.00,VWS V14.01,2013-10-07 19:46:00,
2013-10-07 14:50:00,80.1,40.1,29.93,NW,307,0.0,6.0,24,0.00,,SKC,0.00,773.00,VWS V14.01,2013-10-07 19:50:00,
2013-10-07 14:51:00,80.2,39.1,29.93,NW,307,2.0,6.0,23,0.00,,SKC,0.00,775.00,VWS V14.01,2013-10-07 19:51:00,
2013-10-07 14:56:00,80.6,40.5,29.92,NW,307,2.0,6.0,24,0.00,,SKC,0.00,766.00,VWS V14.01,2013-10-07 19:56:00,
2013-10-07 15:00:00,80.4,41.4,29.92,NW,307,0.0,6.0,25,0.00,,SKC,0.00,759.00,VWS V14.01,2013-10-07 20:00:00,
2013-10-07 15:01:00,80.3,41.3,29.92,NW,307,0.0,6.0,25,0.00,,SKC,0.00,759.00,VWS V14.01,2013-10-07 20:01:00,
2013-10-07 15:06:00,81.7,41.4,29.92,NW,307,4.0,8.0,24,0.00,,SKC,0.00,752.00,VWS V14.01,2013-10-07 20:06:00,
2013-10-07 15:10:00,81.8,40.4,29.92,NW,307,6.0,8.0,23,0.00,,SKC,0.00,742.00,VWS V14.01,2013-10-07 20:10:00,
2013-10-07 15:11:00,81.9,39.4,29.92,NW,307,5.0,8.0,22,0.00,,SKC,0.00,744.00,VWS V14.01,2013-10-07 20:11:00,
2013-10-07 15:16:00,81.0,41.9,29.92,NW,307,6.0,11.0,25,0.00,,SKC,0.00,733.00,VWS V14.01,2013-10-07 20:16:00,
2013-10-07 15:20:00,80.9,38.5,29.91,NW,307,4.0,11.0,22,0.00,,SKC,0.00,719.00,VWS V14.01,2013-10-07 20:20:00,
2013-10-07 15:21:00,81.0,38.6,29.91,NW,307,1.0,11.0,22,0.00,,SKC,0.00,722.00,VWS V14.01,2013-10-07 20:21:00,
2013-10-07 15:26:00,81.4,40.1,29.91,NW,307,1.0,6.0,23,0.00,,SKC,0.00,712.00,VWS V14.01,2013-10-07 20:26:00,
2013-10-07 15:30:00,81.7,41.4,29.91,NW,307,4.0,7.0,24,0.00,,SKC,0.00,701.00,VWS V14.01,2013-10-07 20:30:00,
2013-10-07 15:31:00,81.7,40.3,29.91,NW,307,5.0,6.0,23,0.00,,SKC,0.00,705.00,VWS V14.01,2013-10-07 20:31:00,
2013-10-07 15:36:00,82.1,40.7,29.91,NW,307,5.0,7.0,23,0.00,,SKC,0.00,691.00,VWS V14.01,2013-10-07 20:36:00,
2013-10-07 15:40:00,82.4,40.9,29.91,NW,307,5.0,11.0,23,0.00,,SKC,0.00,679.00,VWS V14.01,2013-10-07 20:40:00,
2013-10-07 15:41:00,82.4,42.0,29.91,NW,307,7.0,7.0,24,0.00,,SKC,0.00,680.00,VWS V14.01,2013-10-07 20:41:00,
2013-10-07 15:46:00,82.5,41.0,29.90,NW,307,7.0,9.0,23,0.00,,SKC,0.00,668.00,VWS V14.01,2013-10-07 20:46:00,
2013-10-07 15:50:00,82.2,40.8,29.90,NW,306,0.0,12.0,23,0.00,,SKC,0.00,652.00,VWS V14.01,2013-10-07 20:50:00,
2013-10-07 15:51:00,82.1,40.7,29.90,NW,306,1.0,12.0,23,0.00,,SKC,0.00,656.00,VWS V14.01,2013-10-07 20:51:00,
2013-10-07 15:56:00,82.8,41.3,29.90,NW,306,1.0,8.0,23,0.00,,SKC,0.00,643.00,VWS V14.01,2013-10-07 20:56:00,
2013-10-07 16:00:00,82.7,42.3,29.90,NW,306,6.0,11.0,24,0.00,,SKC,0.00,628.00,VWS V14.01,2013-10-07 21:00:00,
2013-10-07 16:01:00,82.7,40.0,29.90,NW,306,6.0,11.0,22,0.00,,SKC,0.00,629.00,VWS V14.01,2013-10-07 21:01:00,
2013-10-07 16:06:00,82.9,42.4,29.89,NW,304,9.0,12.0,24,0.00,,SKC,0.00,619.00,VWS V14.01,2013-10-07 21:06:00,
2013-10-07 16:10:00,82.9,40.2,29.90,WNW,297,0.0,13.0,22,0.00,,SKC,0.00,601.00,VWS V14.01,2013-10-07 21:10:00,
2013-10-07 16:11:00,83.0,40.3,29.90,WNW,297,4.0,13.0,22,0.00,,SKC,0.00,605.00,VWS V14.01,2013-10-07 21:11:00,
2013-10-07 16:16:00,82.9,37.8,29.89,WNW,297,0.0,7.0,20,0.00,,SKC,0.00,591.00,VWS V14.01,2013-10-07 21:16:00,
2013-10-07 16:20:00,82.4,39.8,29.89,WNW,296,0.0,12.0,22,0.00,,SKC,0.00,573.00,VWS V14.01,2013-10-07 21:20:00,
2013-10-07 16:21:00,82.3,39.7,29.89,WNW,296,2.0,12.0,22,0.00,,SKC,0.00,577.00,VWS V14.01,2013-10-07 21:21:00,
2013-10-07 16:26:00,82.1,39.5,29.89,WNW,296,0.0,7.0,22,0.00,,SKC,0.00,561.00,VWS V14.01,2013-10-07 21:26:00,
2013-10-07 16:30:00,82.6,41.1,29.88,NNW,327,4.0,19.0,23,0.00,,SKC,0.00,541.00,VWS V14.01,2013-10-07 21:30:00,
2013-10-07 16:31:00,82.5,39.9,29.88,NNW,327,5.0,19.0,22,0.00,,SKC,0.00,545.00,VWS V14.01,2013-10-07 21:31:00,
2013-10-07 16:36:00,82.1,40.7,29.88,NNW,327,6.0,10.0,23,0.00,,SKC,0.00,533.00,VWS V14.01,2013-10-07 21:36:00,
2013-10-07 16:40:00,82.4,39.8,29.88,NNW,327,0.0,10.0,22,0.00,,SKC,0.00,513.00,VWS V14.01,2013-10-07 21:40:00,
2013-10-07 16:41:00,82.3,39.7,29.88,NNW,327,0.0,10.0,22,0.00,,SKC,0.00,517.00,VWS V14.01,2013-10-07 21:41:00,
2013-10-07 16:46:00,82.4,40.9,29.88,NNW,327,4.0,5.0,23,0.00,,SKC,0.00,499.00,VWS V14.01,2013-10-07 21:46:00,
2013-10-07 16:50:00,82.4,40.9,29.87,NNW,327,5.0,6.0,23,0.00,,SKC,0.00,482.00,VWS V14.01,2013-10-07 21:50:00,
2013-10-07 16:51:00,82.3,40.8,29.87,NNW,327,4.0,5.0,23,0.00,,SKC,0.00,483.00,VWS V14.01,2013-10-07 21:51:00,
2013-10-07 16:56:00,82.7,40.0,29.87,NNW,327,1.0,6.0,22,0.00,,SKC,0.00,468.00,VWS V14.01,2013-10-07 21:56:00,
2013-10-07 17:00:00,82.0,39.4,29.87,NNW,327,0.0,6.0,22,0.00,,SKC,0.00,448.00,VWS V14.01,2013-10-07 22:00:00,
2013-10-07 17:01:00,82.0,39.4,29.87,NNW,327,0.0,6.0,22,0.00,,SKC,0.00,450.00,VWS V14.01,2013-10-07 22:01:00,
2013-10-07 17:06:00,82.2,40.8,29.87,NNW,327,9.0,9.0,23,0.00,,SKC,0.00,434.00,VWS V14.01,2013-10-07 22:06:00,
2013-10-07 17:10:00,82.8,38.9,29.87,NNW,327,2.0,9.0,21,0.00,,SKC,0.00,415.00,VWS V14.01,2013-10-07 22:10:00,
2013-10-07 17:11:00,82.9,40.2,29.87,NNW,327,2.0,9.0,22,0.00,,SKC,0.00,415.00,VWS V14.01,2013-10-07 22:11:00,
2013-10-07 17:16:00,82.6,39.9,29.87,NNW,327,4.0,6.0,22,0.00,,SKC,0.00,401.00,VWS V14.01,2013-10-07 22:16:00,
2013-10-07 17:20:00,82.0,39.4,29.87,NNW,327,2.0,6.0,22,0.00,,SKC,0.00,380.00,VWS V14.01,2013-10-07 22:20:00,
2013-10-07 17:21:00,82.1,39.5,29.87,NNW,327,0.0,6.0,22,0.00,,SKC,0.00,383.00,VWS V14.01,2013-10-07 22:21:00,
2013-10-07 17:26:00,81.9,40.5,29.87,NNW,327,4.0,5.0,23,0.00,,SKC,0.00,366.00,VWS V14.01,2013-10-07 22:26:00,
2013-10-07 17:30:00,82.7,42.3,29.87,NNW,327,0.0,5.0,24,0.00,,SKC,0.00,345.00,VWS V14.01,2013-10-07 22:30:00,
2013-10-07 17:31:00,82.5,41.0,29.87,NNW,327,4.0,5.0,23,0.00,,SKC,0.00,346.00,VWS V14.01,2013-10-07 22:31:00,
2013-10-07 17:36:00,82.3,39.7,29.87,NNW,327,2.0,6.0,22,0.00,,SKC,0.00,329.00,VWS V14.01,2013-10-07 22:36:00,
2013-10-07 17:40:00,81.9,40.5,29.87,NNW,327,1.0,7.0,23,0.00,,SKC,0.00,308.00,VWS V14.01,2013-10-07 22:40:00,
2013-10-07 17:41:00,81.8,40.4,29.87,NNW,327,6.0,7.0,23,0.00,,SKC,0.00,311.00,VWS V14.01,2013-10-07 22:41:00,
2013-10-07 17:46:00,82.1,39.5,29.87,NNW,327,0.0,6.0,22,0.00,,SKC,0.00,295.00,VWS V14.01,2013-10-07 22:46:00,
2013-10-07 17:50:00,82.3,40.8,29.86,NNW,327,1.0,6.0,23,0.00,,SKC,0.00,274.00,VWS V14.01,2013-10-07 22:50:00,
2013-10-07 17:51:00,82.3,40.8,29.86,NNW,327,1.0,6.0,23,0.00,,SKC,0.00,276.00,VWS V14.01,2013-10-07 22:51:00,
2013-10-07 17:56:00,82.4,40.9,29.87,NNW,327,0.0,1.0,23,0.00,,SKC,0.00,255.00,VWS V14.01,2013-10-07 22:56:00,
2013-10-07 18:00:00,82.3,38.5,29.87,NNW,327,0.0,5.0,21,0.00,,SKC,0.00,230.00,VWS V14.01,2013-10-07 23:00:00,
2013-10-07 18:01:00,82.4,38.6,29.87,NNW,327,0.0,5.0,21,0.00,,SKC,0.00,232.00,VWS V14.01,2013-10-07 23:01:00,
2013-10-07 18:06:00,81.9,41.6,29.87,NNW,327,1.0,1.0,24,0.00,,SKC,0.00,211.00,VWS V14.01,2013-10-07 23:06:00,
2013-10-07 18:10:00,81.6,39.1,29.87,NNW,327,0.0,4.0,22,0.00,,SKC,0.00,183.00,VWS V14.01,2013-10-07 23:10:00,
2013-10-07 18:11:00,81.6,40.2,29.87,NNW,327,0.0,4.0,23,0.00,,SKC,0.00,186.00,VWS V14.01,2013-10-07 23:11:00,
2013-10-07 18:16:00,81.2,39.9,29.87,NNW,327,0.0,2.0,23,0.00,,SKC,0.00,163.00,VWS V14.01,2013-10-07 23:16:00,
2013-10-07 18:20:00,81.1,40.9,29.87,NNW,327,4.0,4.0,24,0.00,,SKC,0.00,141.00,VWS V14.01,2013-10-07 23:20:00,
2013-10-07 18:21:00,81.1,40.9,29.87,NNW,327,4.0,4.0,24,0.00,,SKC,0.00,144.00,VWS V14.01,2013-10-07 23:21:00,
2013-10-07 18:26:00,80.9,39.7,29.87,NNW,327,0.0,4.0,23,0.00,,SKC,0.00,121.00,VWS V14.01,2013-10-07 23:26:00,
2013-10-07 18:30:00,80.9,39.7,29.87,NNW,327,0.0,4.0,23,0.00,,SKC,0.00,95.00,VWS V14.01,2013-10-07 23:30:00,
2013-10-07 18:31:00,80.9,40.8,29.87,NNW,327,0.0,4.0,24,0.00,,SKC,0.00,98.00,VWS V14.01,2013-10-07 23:31:00,
2013-10-07 18:36:00,80.8,40.7,29.87,NNW,327,0.0,0.0,24,0.00,,SKC,0.00,79.00,VWS V14.01,2013-10-07 23:36:00,
2013-10-07 18:40:00,80.6,40.5,29.87,NNW,327,0.0,1.0,24,0.00,,SKC,0.00,58.00,VWS V14.01,2013-10-07 23:40:00,
2013-10-07 18:41:00,80.6,40.5,29.87,NNW,327,0.0,1.0,24,0.00,,SKC,0.00,60.00,VWS V14.01,2013-10-07 23:41:00,
2013-10-07 18:46:00,80.2,42.2,29.87,NNW,327,0.0,1.0,26,0.00,,SKC,0.00,44.00,VWS V14.01,2013-10-07 23:46:00,
2013-10-07 18:50:00,79.7,40.8,29.87,NNW,327,0.0,4.0,25,0.00,,SKC,0.00,30.00,VWS V14.01,2013-10-07 23:50:00,
2013-10-07 18:51:00,79.7,41.8,29.87,NNW,327,2.0,4.0,26,0.00,,SKC,0.00,33.00,VWS V14.01,2013-10-07 23:51:00,
2013-10-07 18:56:00,79.6,40.7,29.87,NNW,327,2.0,5.0,25,0.00,,SKC,0.00,23.00,VWS V14.01,2013-10-07 23:56:00,
2013-10-07 19:00:00,79.2,41.4,29.87,NNW,327,4.0,6.0,26,0.00,,SKC,0.00,14.00,VWS V14.01,2013-10-08 00:00:00,
2013-10-07 19:01:00,79.3,41.5,29.87,NNW,327,1.0,6.0,26,0.00,,SKC,0.00,14.00,VWS V14.01,2013-10-08 00:01:00,
2013-10-07 19:06:00,78.8,41.0,29.87,NNW,327,0.0,4.0,26,0.00,,SKC,0.00,11.00,VWS V14.01,2013-10-08 00:06:00,
2013-10-07 19:10:00,77.9,41.3,29.87,NNW,327,2.0,4.0,27,0.00,,SKC,0.00,5.00,VWS V14.01,2013-10-08 00:10:00,
2013-10-07 19:11:00,78.0,41.3,29.87,NNW,327,0.0,4.0,27,0.00,,SKC,0.00,7.00,VWS V14.01,2013-10-08 00:11:00,
2013-10-07 19:16:00,77.2,41.6,29.87,NNW,327,0.0,2.0,28,0.00,,SKC,0.00,0.00,VWS V14.01,2013-10-08 00:16:00,
2013-10-07 19:20:00,76.4,40.9,29.87,NNW,327,2.0,4.0,28,0.00,,SKC,0.00,0.00,VWS V14.01,2013-10-08 00:20:00,
2013-10-07 19:21:00,76.5,41.0,29.87,NNW,327,1.0,4.0,28,0.00,,SKC,0.00,0.00,VWS V14.01,2013-10-08 00:21:00,
2013-10-07 19:26:00,76.2,40.8,29.87,NNW,327,1.0,2.0,28,0.00,,SKC,0.00,0.00,VWS V14.01,2013-10-08 00:26:00,
2013-10-07 19:30:00,76.0,40.6,29.87,NNW,327,0.0,2.0,28,0.00,,SKC,0.00,0.00,VWS V14.01,2013-10-08 00:30:00,
2013-10-07 19:31:00,76.0,40.6,29.87,NNW,327,2.0,2.0,28,0.00,,SKC,0.00,0.00,VWS V14.01,2013-10-08 00:31:00,
2013-10-07 19:35:00,76.0,40.6,29.87,NNW,327,1.0,2.0,28,0.00,,SKC,0.00,0.00,VWS V14.01,2013-10-08 00:35:00,
2013-10-07 19:40:00,75.9,40.5,29.87,NNW,327,5.0,5.0,28,0.00,,SKC,0.00,0.00,VWS V14.01,2013-10-08 00:40:00,
2013-10-07 19:45:00,75.9,39.6,29.88,NNW,327,4.0,5.0,27,0.00,,SKC,0.00,0.00,VWS V14.01,2013-10-08 00:45:00,
2013-10-07 19:50:00,76.1,39.7,29.88,NNW,327,2.0,5.0,27,0.00,,SKC,0.00,0.00,VWS V14.01,2013-10-08 00:50:00,
2013-10-07 19:55:00,75.9,39.6,29.88,NNW,327,1.0,5.0,27,0.00,,SKC,0.00,0.00,VWS V14.01,2013-10-08 00:55:00,
2013-10-07 20:00:00,75.7,40.3,29.88,NNW,327,2.0,5.0,28,0.00,,SKC,0.00,0.00,VWS V14.01,2013-10-08 01:00:00,
2013-10-07 20:05:00,75.5,40.2,29.87,NNW,327,0.0,2.0,28,0.00,,SKC,0.00,0.00,VWS V14.01,2013-10-08 01:05:00,
2013-10-07 20:10:00,75.1,39.8,29.88,NNW,327,0.0,5.0,28,0.00,,SKC,0.00,0.00,VWS V14.01,2013-10-08 01:10:00,
2013-10-07 20:15:00,74.9,39.6,29.87,NNW,327,2.0,4.0,28,0.00,,SKC,0.00,0.00,VWS V14.01,2013-10-08 01:15:00,
2013-10-07 20:20:00,74.9,39.6,29.88,NNW,327,1.0,5.0,28,0.00,,SKC,0.00,0.00,VWS V14.01,2013-10-08 01:20:00,
2013-10-07 20:25:00,74.9,39.6,29.88,NNW,327,0.0,2.0,28,0.00,,SKC,0.00,0.00,VWS V14.01,2013-10-08 01:25:00,
2013-10-07 20:30:00,74.5,40.2,29.88,NNW,327,1.0,2.0,29,0.00,,SKC,0.00,0.00,VWS V14.01,2013-10-08 01:30:00,
2013-10-07 20:35:00,74.2,39.9,29.88,NNW,327,0.0,2.0,29,0.00,,SKC,0.00,0.00,VWS V14.01,2013-10-08 01:35:00,
2013-10-07 20:40:00,74.2,39.9,29.88,NNW,327,0.0,2.0,29,0.00,,SKC,0.00,0.00,VWS V14.01,2013-10-08 01:40:00,
2013-10-07 20:45:00,74.2,39.9,29.88,NNW,327,0.0,0.0,29,0.00,,SKC,0.00,0.00,VWS V14.01,2013-10-08 01:45:00,
2013-10-07 20:50:00,74.4,39.2,29.88,NNW,327,1.0,4.0,28,0.00,,SKC,0.00,0.00,VWS V14.01,2013-10-08 01:50:00,
2013-10-07 20:55:00,74.7,39.5,29.88,NNW,327,0.0,4.0,28,0.00,,SKC,0.00,0.00,VWS V14.01,2013-10-08 01:55:00,
2013-10-07 21:00:00,74.9,39.6,29.88,NNW,327,1.0,5.0,28,0.00,,SKC,0.00,0.00,VWS V14.01,2013-10-08 02:00:00,
2013-10-07 21:05:00,74.5,40.2,29.89,NNW,327,2.0,7.0,29,0.00,,SKC,0.00,0.00,VWS V14.01,2013-10-08 02:05:00,
2013-10-07 21:10:00,74.2,39.9,29.89,NNW,327,4.0,7.0,29,0.00,,SKC,0.00,0.00,VWS V14.01,2013-10-08 02:10:00,
2013-10-07 21:15:00,73.4,41.0,29.89,NNW,327,0.0,5.0,31,0.00,,SKC,0.00,0.00,VWS V14.01,2013-10-08 02:15:00,
2013-10-07 21:20:00,72.4,40.9,29.89,NNW,327,1.0,5.0,32,0.00,,SKC,0.00,0.00,VWS V14.01,2013-10-08 02:20:00,
2013-10-07 21:25:00,71.7,41.1,29.89,NNW,327,0.0,5.0,33,0.00,,SKC,0.00,0.00,VWS V14.01,2013-10-08 02:25:00,
2013-10-07 21:30:00,71.2,40.7,29.89,NNW,327,0.0,5.0,33,0.00,,SKC,0.00,0.00,VWS V14.01,2013-10-08 02:30:00,
2013-10-07 21:35:00,70.8,41.1,29.90,NNW,327,1.0,6.0,34,0.00,,SKC,0.00,0.00,VWS V14.01,2013-10-08 02:35:00,
2013-10-07 21:40:00,70.6,40.9,29.90,NNW,327,4.0,6.0,34,0.00,,SKC,0.00,0.00,VWS V14.01,2013-10-08 02:40:00,
2013-10-07 21:45:00,70.4,40.7,29.90,NNW,327,1.0,5.0,34,0.00,,SKC,0.00,0.00,VWS V14.01,2013-10-08 02:45:00,
2013-10-07 21:50:00,70.2,41.3,29.90,NNW,327,2.0,5.0,35,0.00,,SKC,0.00,0.00,VWS V14.01,2013-10-08 02:50:00,
2013-10-07 21:55:00,69.8,40.9,29.90,NNW,327,0.0,4.0,35,0.00,,SKC,0.00,0.00,VWS V14.01,2013-10-08 02:55:00,
2013-10-07 22:00:00,69.7,40.8,29.90,NNW,327,1.0,5.0,35,0.00,,SKC,0.00,0.00,VWS V14.01,2013-10-08 03:00:00,
2013-10-07 22:05:00,69.4,41.3,29.90,NNW,327,4.0,5.0,36,0.00,,SKC,0.00,0.00,VWS V14.01,2013-10-08 03:05:00,
2013-10-07 22:10:00,69.1,41.0,29.90,NNW,327,4.0,6.0,36,0.00,,SKC,0.00,0.00,VWS V14.01,2013-10-08 03:10:00,
2013-10-07 22:15:00,68.7,41.4,29.90,NNW,327,0.0,4.0,37,0.00,,SKC,0.00,0.00,VWS V14.01,2013-10-08 03:15:00,
2013-10-07 22:20:00,68.4,41.1,29.90,NNW,327,2.0,6.0,37,0.00,,SKC,0.00,0.00,VWS V14.01,2013-10-08 03:20:00,
2013-10-07 22:25:00,68.4,41.1,29.90,NNW,327,2.0,5.0,37,0.00,,SKC,0.00,0.00,VWS V14.01,2013-10-08 03:25:00,
2013-10-07 22:30:00,68.3,41.0,29.90,NNW,327,4.0,5.0,37,0.00,,SKC,0.00,0.00,VWS V14.01,2013-10-08 03:30:00,
2013-10-07 22:35:00,68.4,41.1,29.90,NNW,327,5.0,6.0,37,0.00,,SKC,0.00,0.00,VWS V14.01,2013-10-08 03:35:00,
2013-10-07 22:40:00,68.6,40.6,29.90,NNW,327,4.0,6.0,36,0.00,,SKC,0.00,0.00,VWS V14.01,2013-10-08 03:40:00,
2013-10-07 22:45:00,68.9,40.9,29.90,NNW,327,4.0,6.0,36,0.00,,SKC,0.00,0.00,VWS V14.01,2013-10-08 03:45:00,
2013-10-07 22:50:00,68.9,40.9,29.90,NNW,327,4.0,6.0,36,0.00,,SKC,0.00,0.00,VWS V14.01,2013-10-08 03:50:00,
2013-10-07 22:55:00,68.8,40.8,29.90,NNW,327,5.0,5.0,36,0.00,,SKC,0.00,0.00,VWS V14.01,2013-10-08 03:55:00,
2013-10-07 23:00:00,68.6,40.6,29.90,NNW,327,1.0,5.0,36,0.00,,SKC,0.00,0.00,VWS V14.01,2013-10-08 04:00:00,
2013-10-07 23:01:00,68.6,40.6,29.90,NNW,327,2.0,5.0,36,0.00,,SKC,0.00,0.00,VWS V14.01,2013-10-08 04:01:00,
2013-10-07 23:06:00,68.5,40.5,29.90,NNW,327,0.0,6.0,36,0.00,,SKC,0.00,0.00,VWS V14.01,2013-10-08 04:06:00,
2013-10-07 23:10:00,68.4,41.1,29.89,NNW,327,6.0,6.0,37,0.00,,SKC,0.00,0.00,VWS V14.01,2013-10-08 04:10:00,
2013-10-07 23:11:00,68.4,41.1,29.89,NNW,327,0.0,6.0,37,0.00,,SKC,0.00,0.00,VWS V14.01,2013-10-08 04:11:00,
2013-10-07 23:16:00,68.4,41.1,29.89,NNW,327,0.0,7.0,37,0.00,,SKC,0.00,0.00,VWS V14.01,2013-10-08 04:16:00,
2013-10-07 23:20:00,68.3,41.0,29.89,NNW,327,5.0,7.0,37,0.00,,SKC,0.00,0.00,VWS V14.01,2013-10-08 04:20:00,
2013-10-07 23:21:00,68.3,41.0,29.89,NNW,327,4.0,7.0,37,0.00,,SKC,0.00,0.00,VWS V14.01,2013-10-08 04:21:00,
2013-10-07 23:26:00,68.2,41.0,29.89,NNW,327,4.0,7.0,37,0.00,,SKC,0.00,0.00,VWS V14.01,2013-10-08 04:26:00,
2013-10-07 23:30:00,68.3,41.0,29.89,NNW,327,2.0,7.0,37,0.00,,SKC,0.00,0.00,VWS V14.01,2013-10-08 04:30:00,
2013-10-07 23:31:00,68.3,41.0,29.89,NNW,327,5.0,7.0,37,0.00,,SKC,0.00,0.00,VWS V14.01,2013-10-08 04:31:00,
2013-10-07 23:36:00,68.5,40.5,29.89,NNW,327,4.0,6.0,36,0.00,,SKC,0.00,0.00,VWS V14.01,2013-10-08 04:36:00,
2013-10-07 23:40:00,68.5,41.2,29.89,NNW,327,2.0,7.0,37,0.00,,SKC,0.00,0.00,VWS V14.01,2013-10-08 04:40:00,
2013-10-07 23:41:00,68.5,41.2,29.89,NNW,327,2.0,7.0,37,0.00,,SKC,0.00,0.00,VWS V14.01,2013-10-08 04:41:00,
2013-10-07 23:46:00,68.4,41.1,29.89,NNW,327,2.0,6.0,37,0.00,,SKC,0.00,0.00,VWS V14.01,2013-10-08 04:46:00,
2013-10-07 23:50:00,68.3,41.7,29.88,NNW,327,6.0,8.0,38,0.00,,SKC,0.00,0.00,VWS V14.01,2013-10-08 04:50:00,
2013-10-07 23:51:00,68.3,41.7,29.89,NNW,327,2.0,8.0,38,0.00,,SKC,0.00,0.00,VWS V14.01,2013-10-08 04:51:00,
2013-10-07 23:56:00,68.2,41.7,29.88,NNW,327,1.0,7.0,38,0.00,,SKC,0.00,0.00,VWS V14.01,2013-10-08 04:56:00,